sensor_id;sensor_type;location;lat;lon;timestamp;pressure;altitude;pressure_sealevel;temperature;humidity
63819;BME280;49970;54.976;73.248;2023-02-28T00:01:56;100368.78;;;-4.08;100.00
63819;BME280;49970;54.976;73.248;2023-02-28T00:04:25;100379.13;;;-4.08;100.00
63819;BME280;49970;54.976;73.248;2023-02-28T00:06:52;100382.53;;;-4.06;100.00
63819;BME280;49970;54.976;73.248;2023-02-28T00:09:18;100385.13;;;-4.06;100.00
63819;BME280;49970;54.976;73.248;2023-02-28T00:11:44;100385.16;;;-4.08;100.00
63819;BME280;49970;54.976;73.248;2023-02-28T00:14:10;100368.75;;;-4.07;100.00
63819;BME280;49970;54.976;73.248;2023-02-28T00:16:36;100373.06;;;-4.06;100.00
63819;BME280;49970;54.976;73.248;2023-02-28T00:19:13;100369.63;;;-4.06;100.00
63819;BME280;49970;54.976;73.248;2023-02-28T00:21:39;100373.94;;;-4.07;100.00
63819;BME280;49970;54.976;73.248;2023-02-28T00:24:06;100361.00;;;-4.07;100.00
63819;BME280;49970;54.976;73.248;2023-02-28T00:26:33;100364.47;;;-4.08;100.00
63819;BME280;49970;54.976;73.248;2023-02-28T00:28:59;100361.03;;;-4.08;100.00
63819;BME280;49970;54.976;73.248;2023-02-28T00:31:25;100349.81;;;-4.09;100.00
63819;BME280;49970;54.976;73.248;2023-02-28T00:33:51;100347.25;;;-4.09;100.00
63819;BME280;49970;54.976;73.248;2023-02-28T00:36:18;100333.47;;;-4.09;100.00
63819;BME280;49970;54.976;73.248;2023-02-28T00:38:44;100345.53;;;-4.11;100.00
63819;BME280;49970;54.976;73.248;2023-02-28T00:41:10;100336.91;;;-4.12;100.00
63819;BME280;49970;54.976;73.248;2023-02-28T00:43:41;100344.69;;;-4.12;100.00
63819;BME280;49970;54.976;73.248;2023-02-28T00:46:10;100328.31;;;-4.12;100.00
63819;BME280;49970;54.976;73.248;2023-02-28T00:48:36;100334.31;;;-4.10;100.00
63819;BME280;49970;54.976;73.248;2023-02-28T00:51:07;100344.66;;;-4.10;100.00
63819;BME280;49970;54.976;73.248;2023-02-28T00:53:34;100337.75;;;-4.10;100.00
63819;BME280;49970;54.976;73.248;2023-02-28T00:56:00;100320.53;;;-4.11;100.00
63819;BME280;49970;54.976;73.248;2023-02-28T00:58:27;100309.28;;;-4.10;100.00
63819;BME280;49970;54.976;73.248;2023-02-28T01:00:53;100307.59;;;-4.09;100.00
63819;BME280;49970;54.976;73.248;2023-02-28T01:03:20;100304.13;;;-4.08;100.00
63819;BME280;49970;54.976;73.248;2023-02-28T01:05:47;100308.41;;;-4.07;100.00
63819;BME280;49970;54.976;73.248;2023-02-28T01:08:14;100310.16;;;-4.08;100.00
63819;BME280;49970;54.976;73.248;2023-02-28T01:10:50;100313.59;;;-4.07;100.00
63819;BME280;49970;54.976;73.248;2023-02-28T01:13:17;100296.34;;;-4.05;100.00
63819;BME280;49970;54.976;73.248;2023-02-28T01:15:49;100302.34;;;-4.06;100.00
63819;BME280;49970;54.976;73.248;2023-02-28T01:18:21;100296.34;;;-4.05;100.00
63819;BME280;49970;54.976;73.248;2023-02-28T01:20:53;100274.00;;;-4.12;100.00
63819;BME280;49970;54.976;73.248;2023-02-28T01:23:20;100296.31;;;-4.04;100.00
63819;BME280;49970;54.976;73.248;2023-02-28T01:26:10;100289.41;;;-4.03;100.00
63819;BME280;49970;54.976;73.248;2023-02-28T01:28:39;100289.41;;;-4.03;100.00
63819;BME280;49970;54.976;73.248;2023-02-28T01:31:11;100273.03;;;-4.04;100.00
63819;BME280;49970;54.976;73.248;2023-02-28T01:33:38;100280.75;;;-4.01;100.00
63819;BME280;49970;54.976;73.248;2023-02-28T01:36:08;100285.03;;;-3.99;100.00
63819;BME280;49970;54.976;73.248;2023-02-28T01:38:35;100277.28;;;-3.99;100.00
63819;BME280;49970;54.976;73.248;2023-02-28T01:41:02;100282.47;;;-3.99;100.00
63819;BME280;49970;54.976;73.248;2023-02-28T01:43:31;100269.53;;;-3.99;100.00
63819;BME280;49970;54.976;73.248;2023-02-28T01:46:04;100270.38;;;-3.99;100.00
63819;BME280;49970;54.976;73.248;2023-02-28T01:48:32;100279.84;;;-3.98;100.00
63819;BME280;49970;54.976;73.248;2023-02-28T01:51:11;100257.47;;;-4.01;99.90
63819;BME280;49970;54.976;73.248;2023-02-28T01:53:42;100261.75;;;-3.99;99.81
63819;BME280;49970;54.976;73.248;2023-02-28T01:56:12;100269.50;;;-3.98;100.00
63819;BME280;49970;54.976;73.248;2023-02-28T01:58:51;100260.91;;;-4.00;99.56
63819;BME280;49970;54.976;73.248;2023-02-28T02:01:28;100248.78;;;-3.98;99.19
63819;BME280;49970;54.976;73.248;2023-02-28T02:03:57;100237.69;;;-4.05;99.28
63819;BME280;49970;54.976;73.248;2023-02-28T02:06:42;100260.03;;;-3.99;99.08
63819;BME280;49970;54.976;73.248;2023-02-28T02:09:11;100245.34;;;-3.97;98.88
63819;BME280;49970;54.976;73.248;2023-02-28T02:11:39;100244.47;;;-3.96;98.66
63819;BME280;49970;54.976;73.248;2023-02-28T02:14:48;100243.63;;;-3.96;98.40
63819;BME280;49970;54.976;73.248;2023-02-28T02:17:44;100229.81;;;-3.95;98.21
63819;BME280;49970;54.976;73.248;2023-02-28T02:20:38;100221.16;;;-3.94;98.27
63819;BME280;49970;54.976;73.248;2023-02-28T02:25:54;100232.34;;;-3.92;98.10
63819;BME280;49970;54.976;73.248;2023-02-28T02:31:31;100234.91;;;-3.91;97.70
63819;BME280;49970;54.976;73.248;2023-02-28T02:34:40;100234.06;;;-3.91;97.37
63819;BME280;49970;54.976;73.248;2023-02-28T02:37:29;100224.53;;;-3.89;97.38
63819;BME280;49970;54.976;73.248;2023-02-28T02:43:03;100217.63;;;-3.87;97.59
63819;BME280;49970;54.976;73.248;2023-02-28T02:46:10;100221.06;;;-3.87;96.77
63819;BME280;49970;54.976;73.248;2023-02-28T02:48:40;100210.75;;;-3.88;96.93
63819;BME280;49970;54.976;73.248;2023-02-28T02:51:14;100205.56;;;-3.88;96.82
63819;BME280;49970;54.976;73.248;2023-02-28T02:53:55;100202.16;;;-3.92;96.88
63819;BME280;49970;54.976;73.248;2023-02-28T02:56:32;100204.78;;;-3.95;96.70
63819;BME280;49970;54.976;73.248;2023-02-28T02:59:05;100191.03;;;-3.98;97.20
63819;BME280;49970;54.976;73.248;2023-02-28T03:01:35;100185.03;;;-4.02;96.72
63819;BME280;49970;54.976;73.248;2023-02-28T03:04:07;100190.22;;;-4.02;96.94
63819;BME280;49970;54.976;73.248;2023-02-28T03:06:39;100185.09;;;-4.05;96.85
63819;BME280;49970;54.976;73.248;2023-02-28T03:09:05;100192.06;;;-4.12;96.58
63819;BME280;49970;54.976;73.248;2023-02-28T03:11:37;100189.47;;;-4.10;96.50
63819;BME280;49970;54.976;73.248;2023-02-28T03:14:36;100180.03;;;-4.14;96.61
63819;BME280;49970;54.976;73.248;2023-02-28T03:17:30;100180.94;;;-4.17;96.56
63819;BME280;49970;54.976;73.248;2023-02-28T03:23:10;100181.88;;;-4.24;97.45
63819;BME280;49970;54.976;73.248;2023-02-28T03:25:54;100183.66;;;-4.26;96.66
63819;BME280;49970;54.976;73.248;2023-02-28T03:28:32;100173.38;;;-4.32;97.30
63819;BME280;49970;54.976;73.248;2023-02-28T03:31:16;100172.50;;;-4.31;97.25
63819;BME280;49970;54.976;73.248;2023-02-28T03:34:03;100168.22;;;-4.35;97.00
63819;BME280;49970;54.976;73.248;2023-02-28T03:36:38;100162.19;;;-4.33;97.48
63819;BME280;49970;54.976;73.248;2023-02-28T03:39:17;100169.09;;;-4.33;97.49
63819;BME280;49970;54.976;73.248;2023-02-28T03:41:51;100160.44;;;-4.32;96.73
63819;BME280;49970;54.976;73.248;2023-02-28T03:44:38;100154.38;;;-4.31;96.95
63819;BME280;49970;54.976;73.248;2023-02-28T03:47:23;100149.22;;;-4.31;97.73
63819;BME280;49970;54.976;73.248;2023-02-28T03:50:00;100156.97;;;-4.31;97.63
63819;BME280;49970;54.976;73.248;2023-02-28T03:52:42;100141.47;;;-4.30;97.17
63819;BME280;49970;54.976;73.248;2023-02-28T03:55:12;100138.84;;;-4.28;97.22
63819;BME280;49970;54.976;73.248;2023-02-28T03:58:05;100137.16;;;-4.29;96.94
63819;BME280;49970;54.976;73.248;2023-02-28T04:00:43;100134.56;;;-4.31;96.86
63819;BME280;49970;54.976;73.248;2023-02-28T04:03:22;100124.22;;;-4.29;97.17
63819;BME280;49970;54.976;73.248;2023-02-28T04:05:54;100125.06;;;-4.29;97.27
63819;BME280;49970;54.976;73.248;2023-02-28T04:08:22;100122.53;;;-4.33;97.14
63819;BME280;49970;54.976;73.248;2023-02-28T04:10:57;100127.69;;;-4.30;97.16
63819;BME280;49970;54.976;73.248;2023-02-28T04:13:26;100116.47;;;-4.31;96.98
63819;BME280;49970;54.976;73.248;2023-02-28T04:15:52;100119.03;;;-4.29;96.66
63819;BME280;49970;54.976;73.248;2023-02-28T04:18:24;100116.44;;;-4.28;96.88
63819;BME280;49970;54.976;73.248;2023-02-28T04:20:50;100112.06;;;-4.24;97.10
63819;BME280;49970;54.976;73.248;2023-02-28T04:23:21;100111.19;;;-4.23;97.00
63819;BME280;49970;54.976;73.248;2023-02-28T04:25:47;100091.50;;;-4.30;97.09
63819;BME280;49970;54.976;73.248;2023-02-28T04:28:15;100109.44;;;-4.22;97.29
63819;BME280;49970;54.976;73.248;2023-02-28T04:30:41;100098.25;;;-4.23;97.77
63819;BME280;49970;54.976;73.248;2023-02-28T04:33:07;100098.25;;;-4.23;96.87
63819;BME280;49970;54.976;73.248;2023-02-28T04:35:33;100091.34;;;-4.22;97.62
63819;BME280;49970;54.976;73.248;2023-02-28T04:37:59;100094.75;;;-4.19;97.63
63819;BME280;49970;54.976;73.248;2023-02-28T04:40:26;100101.63;;;-4.16;97.34
63819;BME280;49970;54.976;73.248;2023-02-28T04:42:53;100095.59;;;-4.17;97.43
63819;BME280;49970;54.976;73.248;2023-02-28T04:45:30;100094.69;;;-4.14;96.69
63819;BME280;49970;54.976;73.248;2023-02-28T04:47:58;100089.53;;;-4.16;97.43
63819;BME280;49970;54.976;73.248;2023-02-28T04:50:29;100080.91;;;-4.13;97.41
63819;BME280;49970;54.976;73.248;2023-02-28T04:53:00;100084.34;;;-4.13;96.81
63819;BME280;49970;54.976;73.248;2023-02-28T04:55:26;100077.38;;;-4.11;97.40
63819;BME280;49970;54.976;73.248;2023-02-28T04:57:53;100071.31;;;-4.08;97.13
63819;BME280;49970;54.976;73.248;2023-02-28T05:00:19;100068.72;;;-4.07;97.56
63819;BME280;49970;54.976;73.248;2023-02-28T05:02:55;100059.22;;;-4.06;97.32
63819;BME280;49970;54.976;73.248;2023-02-28T05:05:21;100068.63;;;-4.02;97.43
63819;BME280;49970;54.976;73.248;2023-02-28T05:07:58;100059.19;;;-4.03;97.35
63819;BME280;49970;54.976;73.248;2023-02-28T05:10:24;100078.97;;;-4.01;97.30
63819;BME280;49970;54.976;73.248;2023-02-28T05:13:01;100070.31;;;-3.99;97.25
63819;BME280;49970;54.976;73.248;2023-02-28T05:15:27;100059.94;;;-3.98;97.21
63819;BME280;49970;54.976;73.248;2023-02-28T05:17:53;100052.19;;;-3.96;97.54
63819;BME280;49970;54.976;73.248;2023-02-28T05:20:24;100046.94;;;-3.93;97.14
63819;BME280;49970;54.976;73.248;2023-02-28T05:22:50;100049.53;;;-3.92;96.95
63819;BME280;49970;54.976;73.248;2023-02-28T05:25:20;100030.56;;;-3.92;97.41
63819;BME280;49970;54.976;73.248;2023-02-28T05:27:48;100045.16;;;-3.90;97.38
63819;BME280;49970;54.976;73.248;2023-02-28T05:30:15;100022.00;;;-3.96;97.20
63819;BME280;49970;54.976;73.248;2023-02-28T05:32:41;100025.31;;;-3.89;96.89
63819;BME280;49970;54.976;73.248;2023-02-28T05:35:16;100020.97;;;-3.89;97.40
63819;BME280;49970;54.976;73.248;2023-02-28T05:37:42;100014.91;;;-3.86;96.78
63819;BME280;49970;54.976;73.248;2023-02-28T05:40:09;100006.34;;;-3.88;96.96
63819;BME280;49970;54.976;73.248;2023-02-28T05:42:38;100009.75;;;-3.86;97.09
63819;BME280;49970;54.976;73.248;2023-02-28T05:45:05;100007.13;;;-3.85;97.07
63819;BME280;49970;54.976;73.248;2023-02-28T05:47:37;100002.81;;;-3.86;96.90
63819;BME280;49970;54.976;73.248;2023-02-28T05:50:14;99998.50;;;-3.85;97.20
63819;BME280;49970;54.976;73.248;2023-02-28T05:52:50;99999.34;;;-3.83;96.86
63819;BME280;49970;54.976;73.248;2023-02-28T05:55:27;99997.66;;;-3.84;96.58
63819;BME280;49970;54.976;73.248;2023-02-28T05:57:53;99978.75;;;-3.89;96.65
63819;BME280;49970;54.976;73.248;2023-02-28T06:00:29;99981.22;;;-3.83;96.39
63819;BME280;49970;54.976;73.248;2023-02-28T06:02:55;99976.91;;;-3.83;96.70
63819;BME280;49970;54.976;73.248;2023-02-28T06:05:34;99968.25;;;-3.80;96.53
63819;BME280;49970;54.976;73.248;2023-02-28T06:08:00;99975.06;;;-3.76;96.25
63819;BME280;49970;54.976;73.248;2023-02-28T06:10:26;99954.44;;;-3.81;96.63
63819;BME280;49970;54.976;73.248;2023-02-28T06:12:52;99962.91;;;-3.71;96.87
63819;BME280;49970;54.976;73.248;2023-02-28T06:15:18;99949.88;;;-3.66;96.44
63819;BME280;49970;54.976;73.248;2023-02-28T06:17:46;99941.16;;;-3.62;96.45
63819;BME280;49970;54.976;73.248;2023-02-28T06:20:13;99925.53;;;-3.58;96.81
63819;BME280;49970;54.976;73.248;2023-02-28T06:22:43;99925.53;;;-3.58;96.85
63819;BME280;49970;54.976;73.248;2023-02-28T06:25:15;99944.47;;;-3.54;96.93
63819;BME280;49970;54.976;73.248;2023-02-28T06:27:45;99931.53;;;-3.56;96.46
63819;BME280;49970;54.976;73.248;2023-02-28T06:30:12;99932.22;;;-3.47;96.39
63819;BME280;49970;54.976;73.248;2023-02-28T06:32:38;99930.44;;;-3.42;96.55
63819;BME280;49970;54.976;73.248;2023-02-28T06:35:10;99917.47;;;-3.42;96.79
63819;BME280;49970;54.976;73.248;2023-02-28T06:37:36;99922.50;;;-3.36;96.85
63819;BME280;49970;54.976;73.248;2023-02-28T06:40:03;99915.59;;;-3.34;97.14
63819;BME280;49970;54.976;73.248;2023-02-28T06:42:31;99913.81;;;-3.32;96.53
63819;BME280;49970;54.976;73.248;2023-02-28T06:44:58;99905.03;;;-3.27;96.89
63819;BME280;49970;54.976;73.248;2023-02-28T06:47:31;99894.66;;;-3.25;96.25
63819;BME280;49970;54.976;73.248;2023-02-28T06:49:58;99904.88;;;-3.19;96.46
63819;BME280;49970;54.976;73.248;2023-02-28T06:52:34;99900.56;;;-3.18;96.55
63819;BME280;49970;54.976;73.248;2023-02-28T06:55:13;99882.47;;;-3.20;96.43
63819;BME280;49970;54.976;73.248;2023-02-28T06:57:40;99887.59;;;-3.17;96.31
63819;BME280;49970;54.976;73.248;2023-02-28T07:00:08;99885.84;;;-3.16;96.21
63819;BME280;49970;54.976;73.248;2023-02-28T07:02:45;99881.50;;;-3.16;96.38
63819;BME280;49970;54.976;73.248;2023-02-28T07:05:22;99870.25;;;-3.15;96.29
63819;BME280;49970;54.976;73.248;2023-02-28T07:07:54;99881.50;;;-3.16;96.13
63819;BME280;49970;54.976;73.248;2023-02-28T07:10:25;99872.03;;;-3.17;96.08
63819;BME280;49970;54.976;73.248;2023-02-28T07:12:51;99871.09;;;-3.14;95.93
63819;BME280;49970;54.976;73.248;2023-02-28T07:15:27;99870.25;;;-3.13;95.85
63819;BME280;49970;54.976;73.248;2023-02-28T07:17:57;99866.75;;;-3.12;95.69
63819;BME280;49970;54.976;73.248;2023-02-28T07:20:24;99832.56;;;-3.28;95.89
63819;BME280;49970;54.976;73.248;2023-02-28T07:22:55;99862.47;;;-3.13;96.00
63819;BME280;49970;54.976;73.248;2023-02-28T07:25:28;99858.19;;;-3.16;95.44
63819;BME280;49970;54.976;73.248;2023-02-28T07:27:55;99856.47;;;-3.15;95.52
63819;BME280;49970;54.976;73.248;2023-02-28T07:30:31;99848.72;;;-3.17;95.63
63819;BME280;49970;54.976;73.248;2023-02-28T07:32:57;99848.72;;;-3.17;95.22
63819;BME280;49970;54.976;73.248;2023-02-28T07:35:24;99848.72;;;-3.17;95.59
63819;BME280;49970;54.976;73.248;2023-02-28T07:37:51;99830.63;;;-3.18;95.09
63819;BME280;49970;54.976;73.248;2023-02-28T07:40:21;99833.19;;;-3.17;95.32
63819;BME280;49970;54.976;73.248;2023-02-28T07:42:48;99832.28;;;-3.16;95.39
63819;BME280;49970;54.976;73.248;2023-02-28T07:45:16;99824.53;;;-3.16;95.63
63819;BME280;49970;54.976;73.248;2023-02-28T07:47:43;99827.91;;;-3.14;95.43
63819;BME280;49970;54.976;73.248;2023-02-28T07:50:13;99827.97;;;-3.15;95.16
63819;BME280;49970;54.976;73.248;2023-02-28T07:52:40;99824.47;;;-3.14;95.09
63819;BME280;49970;54.976;73.248;2023-02-28T07:55:08;99817.56;;;-3.14;95.43
63819;BME280;49970;54.976;73.248;2023-02-28T07:57:35;99808.19;;;-3.19;95.47
63819;BME280;49970;54.976;73.248;2023-02-28T08:00:04;99816.69;;;-3.13;95.48
63819;BME280;49970;54.976;73.248;2023-02-28T08:02:37;99824.38;;;-3.10;95.20
63819;BME280;49970;54.976;73.248;2023-02-28T08:05:04;99812.25;;;-3.08;95.19
63819;BME280;49970;54.976;73.248;2023-02-28T08:07:35;99806.19;;;-3.07;95.17
63819;BME280;49970;54.976;73.248;2023-02-28T08:10:02;99793.19;;;-3.05;95.27
63819;BME280;49970;54.976;73.248;2023-02-28T08:12:28;99789.66;;;-3.03;95.53
63819;BME280;49970;54.976;73.248;2023-02-28T08:14:55;99787.03;;;-3.01;95.24
63819;BME280;49970;54.976;73.248;2023-02-28T08:17:21;99777.66;;;-3.05;95.78
63819;BME280;49970;54.976;73.248;2023-02-28T08:19:49;99789.53;;;-2.96;95.31
63819;BME280;49970;54.976;73.248;2023-02-28T08:22:20;99777.44;;;-2.96;95.42
63819;BME280;49970;54.976;73.248;2023-02-28T08:24:51;99775.63;;;-2.92;95.48
63819;BME280;49970;54.976;73.248;2023-02-28T08:27:17;99776.47;;;-2.92;95.59
63819;BME280;49970;54.976;73.248;2023-02-28T08:29:47;99776.41;;;-2.90;95.35
63819;BME280;49970;54.976;73.248;2023-02-28T08:32:13;99774.66;;;-2.88;95.79
63819;BME280;49970;54.976;73.248;2023-02-28T08:34:49;99788.34;;;-2.85;95.55
63819;BME280;49970;54.976;73.248;2023-02-28T08:37:16;99775.50;;;-2.88;95.35
63819;BME280;49970;54.976;73.248;2023-02-28T08:39:52;99771.91;;;-2.82;95.45
63819;BME280;49970;54.976;73.248;2023-02-28T08:42:18;99776.16;;;-2.80;95.84
63819;BME280;49970;54.976;73.248;2023-02-28T08:44:44;99772.63;;;-2.77;95.67
63819;BME280;49970;54.976;73.248;2023-02-28T08:47:11;99774.31;;;-2.76;95.45
63819;BME280;49970;54.976;73.248;2023-02-28T08:49:37;99760.50;;;-2.75;95.55
63819;BME280;49970;54.976;73.248;2023-02-28T08:52:33;99753.59;;;-2.76;95.62
63819;BME280;49970;54.976;73.248;2023-02-28T08:56:11;99752.72;;;-2.77;95.81
63819;BME280;49970;54.976;73.248;2023-02-28T08:58:38;99747.59;;;-2.78;95.77
63819;BME280;49970;54.976;73.248;2023-02-28T09:01:50;99754.47;;;-2.77;95.74
63819;BME280;49970;54.976;73.248;2023-02-28T09:04:02;99745.81;;;-2.76;95.93
63819;BME280;49970;54.976;73.248;2023-02-28T09:06:28;99745.72;;;-2.73;95.86
63819;BME280;49970;54.976;73.248;2023-02-28T09:08:58;99744.03;;;-2.74;96.01
63819;BME280;49970;54.976;73.248;2023-02-28T09:11:35;99734.63;;;-2.78;96.22
63819;BME280;49970;54.976;73.248;2023-02-28T09:14:12;99740.56;;;-2.73;96.05
63819;BME280;49970;54.976;73.248;2023-02-28T09:16:38;99738.78;;;-2.71;96.14
63819;BME280;49970;54.976;73.248;2023-02-28T09:19:12;99733.56;;;-2.69;96.01
63819;BME280;49970;54.976;73.248;2023-02-28T09:21:39;99728.38;;;-2.69;96.25
63819;BME280;49970;54.976;73.248;2023-02-28T09:24:05;99732.66;;;-2.68;96.35
63819;BME280;49970;54.976;73.248;2023-02-28T09:26:32;99724.88;;;-2.68;96.21
63819;BME280;49970;54.976;73.248;2023-02-28T09:28:58;99727.44;;;-2.67;96.22
63819;BME280;49970;54.976;73.248;2023-02-28T09:31:34;99717.94;;;-2.68;96.24
63819;BME280;49970;54.976;73.248;2023-02-28T09:34:00;99716.97;;;-2.64;96.36
63819;BME280;49970;54.976;73.248;2023-02-28T09:36:27;99718.69;;;-2.63;96.64
63819;BME280;49970;54.976;73.248;2023-02-28T09:38:59;99709.97;;;-2.60;96.68
63819;BME280;49970;54.976;73.248;2023-02-28T09:41:26;99709.84;;;-2.56;96.43
63819;BME280;49970;54.976;73.248;2023-02-28T09:44:00;99703.72;;;-2.53;96.66
63819;BME280;49970;54.976;73.248;2023-02-28T09:46:45;99706.25;;;-2.50;96.44
63819;BME280;49970;54.976;73.248;2023-02-28T09:49:17;99684.81;;;-2.57;96.53
63819;BME280;49970;54.976;73.248;2023-02-28T09:52:00;99686.31;;;-2.48;96.64
63819;BME280;49970;54.976;73.248;2023-02-28T09:54:32;99675.78;;;-2.43;96.66
63819;BME280;49970;54.976;73.248;2023-02-28T09:57:10;99698.22;;;-2.41;96.72
63819;BME280;49970;54.976;73.248;2023-02-28T09:59:56;99683.41;;;-2.37;96.95
63819;BME280;49970;54.976;73.248;2023-02-28T10:06:26;99678.22;;;-2.37;97.01
63819;BME280;49970;54.976;73.248;2023-02-28T10:08:37;99674.75;;;-2.36;96.97
63819;BME280;49970;54.976;73.248;2023-02-28T10:11:16;99670.34;;;-2.34;97.16
63819;BME280;49970;54.976;73.248;2023-02-28T10:14:05;99676.34;;;-2.32;97.45
63819;BME280;49970;54.976;73.248;2023-02-28T10:17:07;99667.63;;;-2.30;97.49
63819;BME280;49970;54.976;73.248;2023-02-28T10:19:56;99664.16;;;-2.29;97.51
63819;BME280;49970;54.976;73.248;2023-02-28T10:22:33;99667.53;;;-2.27;97.93
63819;BME280;49970;54.976;73.248;2023-02-28T10:25:19;99661.47;;;-2.26;97.69
63819;BME280;49970;54.976;73.248;2023-02-28T10:27:46;99659.66;;;-2.23;97.91
63819;BME280;49970;54.976;73.248;2023-02-28T10:30:13;99659.59;;;-2.20;97.98
63819;BME280;49970;54.976;73.248;2023-02-28T10:32:40;99659.53;;;-2.19;98.27
63819;BME280;49970;54.976;73.248;2023-02-28T10:35:19;99658.63;;;-2.18;98.12
63819;BME280;49970;54.976;73.248;2023-02-28T10:37:53;99656.84;;;-2.16;98.22
63819;BME280;49970;54.976;73.248;2023-02-28T10:42:55;99654.34;;;-2.19;98.35
63819;BME280;49970;54.976;73.248;2023-02-28T10:45:23;99652.56;;;-2.17;98.55
63819;BME280;49970;54.976;73.248;2023-02-28T10:50:51;99646.56;;;-2.19;98.36
63819;BME280;49970;54.976;73.248;2023-02-28T11:01:36;99640.31;;;-2.13;98.70
63819;BME280;49970;54.976;73.248;2023-02-28T11:06:58;99643.59;;;-2.07;98.75
63819;BME280;49970;54.976;73.248;2023-02-28T11:09:51;99639.31;;;-2.08;98.58
63819;BME280;49970;54.976;73.248;2023-02-28T11:12:38;99635.03;;;-2.09;98.96
63819;BME280;49970;54.976;73.248;2023-02-28T11:15:21;99628.16;;;-2.11;98.73
63819;BME280;49970;54.976;73.248;2023-02-28T11:20:39;99636.66;;;-2.06;99.52
63819;BME280;49970;54.976;73.248;2023-02-28T11:23:12;99623.88;;;-2.12;99.23
63819;BME280;49970;54.976;73.248;2023-02-28T11:25:40;99632.44;;;-2.09;99.36
63819;BME280;49970;54.976;73.248;2023-02-28T11:28:27;99632.31;;;-2.06;99.40
63819;BME280;49970;54.976;73.248;2023-02-28T11:33:54;99625.38;;;-2.05;99.56
63819;BME280;49970;54.976;73.248;2023-02-28T11:36:30;99629.69;;;-2.04;99.68
63819;BME280;49970;54.976;73.248;2023-02-28T11:39:04;99629.69;;;-2.04;99.68
63819;BME280;49970;54.976;73.248;2023-02-28T11:41:59;99625.34;;;-2.04;99.66
63819;BME280;49970;54.976;73.248;2023-02-28T11:56:06;99630.56;;;-2.05;99.52
63819;BME280;49970;54.976;73.248;2023-02-28T12:05:11;99641.00;;;-2.07;99.83
63819;BME280;49970;54.976;73.248;2023-02-28T12:10:57;99645.41;;;-2.09;99.94
63819;BME280;49970;54.976;73.248;2023-02-28T12:13:41;99639.25;;;-2.06;99.79
63819;BME280;49970;54.976;73.248;2023-02-28T12:16:29;99629.06;;;-2.12;99.69
63819;BME280;49970;54.976;73.248;2023-02-28T12:19:07;99642.75;;;-2.07;99.70
63819;BME280;49970;54.976;73.248;2023-02-28T12:27:07;99648.72;;;-2.05;99.77
63819;BME280;49970;54.976;73.248;2023-02-28T12:30:03;99653.97;;;-2.07;99.79
63819;BME280;49970;54.976;73.248;2023-02-28T12:32:40;99653.91;;;-2.05;99.58
63819;BME280;49970;54.976;73.248;2023-02-28T12:35:14;99660.84;;;-2.04;99.84
63819;BME280;49970;54.976;73.248;2023-02-28T12:43:40;99654.81;;;-2.06;99.75
63819;BME280;49970;54.976;73.248;2023-02-28T12:46:21;99648.78;;;-2.07;99.74
63819;BME280;49970;54.976;73.248;2023-02-28T12:48:53;99657.41;;;-2.06;100.00
63819;BME280;49970;54.976;73.248;2023-02-28T12:51:24;99644.50;;;-2.08;99.76
63819;BME280;49970;54.976;73.248;2023-02-28T12:54:12;99648.84;;;-2.08;99.89
63819;BME280;49970;54.976;73.248;2023-02-28T12:59:27;99647.09;;;-2.08;99.83
63819;BME280;49970;54.976;73.248;2023-02-28T13:08:26;99667.78;;;-2.06;99.99
63819;BME280;49970;54.976;73.248;2023-02-28T13:10:56;99660.06;;;-2.08;99.71
63819;BME280;49970;54.976;73.248;2023-02-28T13:13:33;99647.03;;;-2.06;99.93
63819;BME280;49970;54.976;73.248;2023-02-28T13:16:10;99653.13;;;-2.07;99.78
63819;BME280;49970;54.976;73.248;2023-02-28T13:18:39;99662.59;;;-2.06;99.95
63819;BME280;49970;54.976;73.248;2023-02-28T13:21:08;99647.84;;;-2.04;99.69
63819;BME280;49970;54.976;73.248;2023-02-28T13:26:17;99644.41;;;-2.05;99.71
63819;BME280;49970;54.976;73.248;2023-02-28T13:31:24;99657.38;;;-2.05;99.70
63819;BME280;49970;54.976;73.248;2023-02-28T13:34:14;99653.91;;;-2.05;99.58
63819;BME280;49970;54.976;73.248;2023-02-28T13:36:50;99655.66;;;-2.06;99.54
63819;BME280;49970;54.976;73.248;2023-02-28T13:42:32;99655.63;;;-2.04;99.43
63819;BME280;49970;54.976;73.248;2023-02-28T13:47:45;99664.28;;;-2.05;99.25
63819;BME280;49970;54.976;73.248;2023-02-28T14:06:29;99671.22;;;-2.06;99.24
63819;BME280;49970;54.976;73.248;2023-02-28T14:09:03;99657.38;;;-2.05;99.13
63819;BME280;49970;54.976;73.248;2023-02-28T14:11:38;99668.56;;;-2.03;99.31
63819;BME280;49970;54.976;73.248;2023-02-28T14:14:07;99672.13;;;-2.07;99.25
63819;BME280;49970;54.976;73.248;2023-02-28T14:17:01;99676.34;;;-2.03;99.36
63819;BME280;49970;54.976;73.248;2023-02-28T14:19:31;99676.34;;;-2.03;99.40
63819;BME280;49970;54.976;73.248;2023-02-28T14:27:34;99689.22;;;-1.99;99.33
63819;BME280;49970;54.976;73.248;2023-02-28T14:36:10;99684.13;;;-2.03;99.24
63819;BME280;49970;54.976;73.248;2023-02-28T14:38:43;99677.09;;;-1.99;99.14
63819;BME280;49970;54.976;73.248;2023-02-28T14:41:21;99684.03;;;-1.99;99.17
63819;BME280;49970;54.976;73.248;2023-02-28T14:43:50;99672.75;;;-1.98;99.29
63819;BME280;49970;54.976;73.248;2023-02-28T14:46:17;99674.50;;;-1.99;99.17
63819;BME280;49970;54.976;73.248;2023-02-28T14:48:49;99677.91;;;-1.97;99.35
63819;BME280;49970;54.976;73.248;2023-02-28T14:51:21;99678.78;;;-1.96;99.22
63819;BME280;49970;54.976;73.248;2023-02-28T14:53:57;99677.91;;;-1.97;99.26
63819;BME280;49970;54.976;73.248;2023-02-28T14:56:30;99669.22;;;-1.96;99.46
63819;BME280;49970;54.976;73.248;2023-02-28T14:58:59;99669.22;;;-1.96;99.33
63819;BME280;49970;54.976;73.248;2023-02-28T15:01:26;99663.97;;;-1.94;99.35
63819;BME280;49970;54.976;73.248;2023-02-28T15:04:01;99653.66;;;-1.96;99.22
63819;BME280;49970;54.976;73.248;2023-02-28T15:06:29;99657.28;;;-2.02;99.29
63819;BME280;49970;54.976;73.248;2023-02-28T15:09:16;99674.31;;;-1.93;99.37
63819;BME280;49970;54.976;73.248;2023-02-28T15:11:47;99676.03;;;-1.92;99.33
63819;BME280;49970;54.976;73.248;2023-02-28T15:14:26;99665.78;;;-1.96;99.21